createdAt,value
2022-08-24T00:02:06.833Z,100.00
2022-08-24T00:04:36.694Z,100.00
2022-08-24T00:07:07.140Z,100.00
2022-08-24T00:09:55.594Z,100.00
2022-08-24T00:12:24.595Z,100.00
2022-08-24T00:14:55.037Z,100.00
2022-08-24T00:17:24.282Z,100.00
2022-08-24T00:19:55.063Z,100.00
2022-08-24T00:22:24.006Z,100.00
2022-08-24T00:24:52.428Z,100.00
2022-08-24T00:27:21.469Z,100.00
2022-08-24T00:29:51.003Z,100.00
2022-08-24T00:32:19.435Z,100.00
2022-08-24T00:34:59.059Z,100.00
2022-08-24T00:37:30.103Z,100.00
2022-08-24T00:39:59.697Z,100.00
2022-08-24T00:42:29.325Z,100.00
2022-08-24T00:44:58.473Z,100.00
2022-08-24T00:47:33.342Z,100.00
2022-08-24T00:50:07.312Z,100.00
2022-08-24T00:52:50.869Z,100.00
2022-08-24T00:55:23.730Z,100.00
2022-08-24T00:57:56.516Z,100.00
2022-08-24T01:00:31.774Z,100.00
2022-08-24T01:03:04.707Z,100.00
2022-08-24T01:05:34.213Z,100.00
2022-08-24T01:08:07.550Z,100.00
2022-08-24T01:10:41.262Z,100.00
2022-08-24T01:13:11.719Z,100.00
2022-08-24T01:15:42.697Z,100.00
2022-08-24T01:18:34.132Z,100.00
2022-08-24T01:21:09.118Z,100.00
2022-08-24T01:23:42.225Z,100.00
2022-08-24T01:26:16.500Z,100.00
2022-08-24T01:28:48.111Z,100.00
2022-08-24T01:31:22.374Z,100.00
2022-08-24T01:33:52.596Z,100.00
2022-08-24T01:36:28.173Z,100.00
2022-08-24T01:39:02.769Z,100.00
2022-08-24T01:41:31.435Z,100.00
2022-08-24T01:44:00.714Z,100.00
2022-08-24T01:46:30.536Z,100.00
2022-08-24T01:49:00.171Z,100.00
2022-08-24T01:51:32.110Z,100.00
2022-08-24T01:54:03.784Z,100.00
2022-08-24T01:56:34.334Z,100.00
2022-08-24T01:59:04.202Z,100.00
2022-08-24T02:01:36.895Z,100.00
2022-08-24T02:04:08.758Z,100.00
2022-08-24T02:06:39.274Z,100.00
2022-08-24T02:09:12.758Z,100.00
2022-08-24T02:11:43.118Z,100.00
2022-08-24T02:14:14.740Z,100.00
2022-08-24T02:16:44.116Z,100.00
2022-08-24T02:19:12.890Z,100.00
2022-08-24T02:21:41.999Z,100.00
2022-08-24T02:24:12.070Z,100.00
2022-08-24T02:26:41.087Z,100.00
2022-08-24T02:29:09.576Z,100.00
2022-08-24T02:31:39.385Z,100.00
2022-08-24T02:34:08.306Z,100.00
2022-08-24T02:36:37.231Z,100.00
2022-08-24T02:39:06.709Z,100.00
2022-08-24T02:41:37.870Z,100.00
2022-08-24T02:44:07.218Z,100.00
2022-08-24T02:46:37.825Z,100.00
2022-08-24T02:49:11.712Z,100.00
2022-08-24T02:51:45.541Z,100.00
2022-08-24T02:54:19.768Z,100.00
2022-08-24T02:56:53.091Z,100.00
2022-08-24T02:59:24.900Z,100.00
2022-08-24T03:01:54.629Z,100.00
2022-08-24T03:04:25.450Z,100.00
2022-08-24T03:06:54.742Z,100.00
2022-08-24T03:09:24.783Z,100.00
2022-08-24T03:12:01.292Z,100.00
2022-08-24T03:14:30.021Z,100.00
2022-08-24T03:16:59.371Z,100.00
2022-08-24T03:19:28.484Z,100.00
2022-08-24T03:21:57.768Z,100.00
2022-08-24T03:24:28.410Z,100.00
2022-08-24T03:26:59.509Z,100.00
2022-08-24T03:29:32.951Z,100.00
2022-08-24T03:32:03.851Z,100.00
2022-08-24T03:34:32.688Z,100.00
2022-08-24T03:37:01.376Z,100.00
2022-08-24T03:39:30.815Z,100.00
2022-08-24T03:41:59.604Z,100.00
2022-08-24T03:44:29.904Z,100.00
2022-08-24T03:46:58.851Z,100.00
2022-08-24T03:49:29.644Z,100.00
2022-08-24T03:51:58.323Z,100.00
2022-08-24T03:54:27.210Z,100.00
2022-08-24T03:56:57.526Z,100.00
2022-08-24T03:59:27.743Z,100.00
2022-08-24T04:02:01.330Z,100.00
2022-08-24T04:04:31.416Z,100.00
2022-08-24T04:07:00.162Z,100.00
2022-08-24T04:09:29.728Z,100.00
2022-08-24T04:11:59.282Z,100.00
2022-08-24T04:14:28.736Z,100.00
2022-08-24T04:17:06.250Z,100.00
2022-08-24T04:19:57.990Z,100.00
2022-08-24T04:22:36.579Z,100.00
2022-08-24T04:25:10.244Z,100.00
2022-08-24T04:27:41.643Z,100.00
2022-08-24T04:30:14.146Z,100.00
2022-08-24T04:33:05.407Z,100.00
2022-08-24T04:35:40.337Z,100.00
2022-08-24T04:38:10.282Z,100.00
2022-08-24T04:40:41.647Z,100.00
2022-08-24T04:43:11.981Z,100.00
2022-08-24T04:45:43.316Z,100.00
2022-08-24T04:48:14.937Z,100.00
2022-08-24T04:50:45.661Z,100.00
2022-08-24T04:53:15.323Z,100.00
2022-08-24T04:55:50.617Z,100.00
2022-08-24T04:58:20.928Z,100.00
2022-08-24T05:00:49.994Z,100.00
2022-08-24T05:03:20.375Z,100.00
2022-08-24T05:05:51.153Z,100.00
2022-08-24T05:08:21.207Z,100.00
2022-08-24T05:10:52.300Z,100.00
2022-08-24T05:13:22.642Z,100.00
2022-08-24T05:15:51.499Z,100.00
2022-08-24T05:18:21.883Z,100.00
2022-08-24T05:20:50.730Z,100.00
2022-08-24T05:23:20.696Z,100.00
2022-08-24T05:25:49.651Z,100.00
2022-08-24T05:28:19.230Z,100.00
2022-08-24T05:30:47.853Z,100.00
2022-08-24T05:33:21.370Z,100.00
2022-08-24T05:35:50.487Z,100.00
2022-08-24T05:38:19.614Z,100.00
2022-08-24T05:40:48.730Z,100.00
2022-08-24T05:43:17.930Z,100.00
2022-08-24T05:45:47.350Z,100.00
2022-08-24T05:48:16.569Z,100.00
2022-08-24T05:51:13.853Z,100.00
2022-08-24T05:53:52.428Z,100.00
2022-08-24T05:56:27.683Z,100.00
2022-08-24T05:59:00.887Z,100.00
2022-08-24T06:01:30.137Z,100.00
2022-08-24T06:03:59.855Z,100.00
2022-08-24T06:06:35.059Z,100.00
2022-08-24T06:09:05.207Z,100.00
2022-08-24T06:11:36.608Z,100.00
2022-08-24T06:14:11.981Z,100.00
2022-08-24T06:16:52.784Z,100.00
2022-08-24T06:19:23.210Z,100.00
2022-08-24T06:21:55.453Z,100.00
2022-08-24T06:24:46.853Z,100.00
2022-08-24T06:27:22.734Z,100.00
2022-08-24T06:29:57.288Z,100.00
2022-08-24T06:32:46.858Z,100.00
2022-08-24T06:35:25.899Z,100.00
2022-08-24T06:37:56.140Z,100.00
2022-08-24T06:40:27.225Z,100.00
2022-08-24T06:42:57.648Z,100.00
2022-08-24T06:45:45.722Z,100.00
2022-08-24T06:48:18.584Z,100.00
2022-08-24T06:50:50.044Z,100.00
2022-08-24T06:53:20.422Z,100.00
2022-08-24T06:55:52.583Z,100.00
2022-08-24T06:58:24.579Z,100.00
2022-08-24T07:00:55.410Z,100.00
2022-08-24T07:06:25.128Z,100.00
2022-08-24T07:08:58.205Z,100.00
2022-08-24T07:12:36.099Z,100.00
2022-08-24T07:15:16.603Z,100.00
2022-08-24T07:17:51.468Z,100.00
2022-08-24T07:20:20.308Z,100.00
2022-08-24T07:23:07.367Z,100.00
2022-08-24T07:25:38.094Z,100.00
2022-08-24T07:28:10.147Z,100.00
2022-08-24T07:30:43.100Z,100.00
2022-08-24T07:33:13.230Z,100.00
2022-08-24T07:35:42.887Z,100.00
2022-08-24T07:38:13.886Z,100.00
2022-08-24T07:41:14.333Z,100.00
2022-08-24T07:43:38.129Z,100.00
2022-08-24T07:46:11.880Z,100.00
2022-08-24T07:48:40.713Z,100.00
2022-08-24T07:51:11.288Z,100.00
2022-08-24T07:53:53.158Z,100.00
2022-08-24T07:56:29.747Z,100.00
2022-08-24T07:59:00.763Z,100.00
2022-08-24T08:01:30.302Z,100.00
2022-08-24T08:03:59.362Z,100.00
2022-08-24T08:06:27.860Z,100.00
2022-08-24T08:09:02.873Z,100.00
2022-08-24T08:11:35.286Z,100.00
2022-08-24T08:14:04.239Z,100.00
2022-08-24T08:16:33.013Z,100.00
2022-08-24T08:19:17.077Z,100.00
2022-08-24T08:22:05.632Z,100.00
2022-08-24T08:24:39.819Z,100.00
2022-08-24T08:27:11.696Z,100.00
2022-08-24T08:29:46.292Z,99.77
2022-08-24T08:32:19.951Z,99.13
2022-08-24T08:34:50.545Z,99.45
2022-08-24T08:37:20.390Z,100.00
2022-08-24T08:39:50.430Z,100.00
2022-08-24T08:42:49.513Z,99.06
2022-08-24T08:45:36.295Z,99.66
2022-08-24T08:49:01.234Z,99.06
2022-08-24T08:51:51.820Z,96.57
2022-08-24T08:54:31.236Z,95.34
2022-08-24T08:57:17.411Z,90.99
2022-08-24T09:00:03.089Z,93.47
2022-08-24T09:02:51.463Z,91.76
2022-08-24T09:08:43.830Z,90.35
2022-08-24T09:11:34.474Z,88.63
2022-08-24T09:14:31.580Z,88.25
2022-08-24T09:17:16.257Z,88.29
2022-08-24T09:20:00.943Z,86.05
2022-08-24T09:22:43.749Z,84.77
2022-08-24T09:25:37.161Z,85.56
2022-08-24T09:28:30.294Z,84.76
2022-08-24T09:31:22.174Z,84.41
2022-08-24T09:34:07.673Z,86.32
2022-08-24T09:36:54.191Z,85.46
2022-08-24T09:39:39.543Z,87.39
2022-08-24T09:42:32.345Z,86.52
2022-08-24T09:45:33.937Z,86.57
2022-08-24T09:48:16.483Z,84.23
2022-08-24T09:50:53.924Z,85.28
2022-08-24T09:54:04.588Z,87.00
2022-08-24T09:57:11.543Z,88.36
2022-08-24T09:59:59.579Z,86.51
2022-08-24T10:02:58.880Z,83.92
2022-08-24T10:05:54.864Z,82.88
2022-08-24T10:08:41.490Z,82.46
2022-08-24T10:11:21.209Z,82.41
2022-08-24T10:14:01.827Z,82.77
2022-08-24T10:16:42.289Z,81.42
2022-08-24T10:19:33.239Z,79.93
2022-08-24T10:22:17.532Z,75.50
2022-08-24T10:25:12.203Z,74.46
2022-08-24T10:27:51.541Z,75.00
2022-08-24T10:30:54.508Z,71.96
2022-08-24T10:33:26.884Z,74.47
2022-08-24T10:36:22.163Z,71.86
2022-08-24T10:39:09.611Z,75.20
2022-08-24T10:42:34.861Z,73.67
2022-08-24T10:45:18.371Z,70.37
2022-08-24T10:48:07.254Z,68.83
2022-08-24T10:50:53.027Z,71.67
2022-08-24T10:53:26.165Z,71.25
2022-08-24T10:56:12.870Z,70.51
2022-08-24T10:58:55.683Z,68.46
2022-08-24T11:01:32.002Z,71.59
2022-08-24T11:04:05.433Z,73.05
2022-08-24T11:06:37.757Z,69.82
2022-08-24T11:09:10.199Z,69.63
2022-08-24T11:11:40.885Z,69.71
2022-08-24T11:14:24.600Z,68.97
2022-08-24T11:16:57.629Z,69.14
2022-08-24T11:19:35.490Z,66.56
2022-08-24T11:22:06.643Z,70.08
2022-08-24T11:24:44.436Z,69.09
2022-08-24T11:27:34.420Z,68.07
2022-08-24T11:30:11.574Z,74.39
2022-08-24T11:32:45.316Z,75.44
2022-08-24T11:35:28.022Z,76.09
2022-08-24T11:37:59.443Z,73.03
2022-08-24T11:40:32.217Z,74.03
2022-08-24T11:43:26.565Z,71.48
2022-08-24T11:46:08.751Z,72.15
2022-08-24T11:48:49.921Z,70.10
2022-08-24T11:51:32.937Z,68.90
2022-08-24T11:54:06.997Z,71.66
2022-08-24T11:56:43.608Z,70.34
2022-08-24T11:59:23.159Z,67.47
2022-08-24T12:01:58.341Z,67.20
2022-08-24T12:04:47.713Z,68.51
2022-08-24T12:07:25.887Z,72.17
2022-08-24T12:10:12.044Z,71.28
2022-08-24T12:12:48.079Z,74.31
2022-08-24T12:15:21.507Z,74.92
2022-08-24T12:17:58.408Z,75.50
2022-08-24T12:20:34.601Z,77.21
2022-08-24T12:23:18.987Z,75.10
2022-08-24T12:26:04.708Z,72.80
2022-08-24T12:28:40.037Z,71.30
2022-08-24T12:31:17.439Z,71.75
2022-08-24T12:33:52.669Z,72.52
2022-08-24T12:36:29.137Z,72.64
2022-08-24T12:39:10.458Z,71.66
2022-08-24T12:41:49.523Z,75.31
2022-08-24T12:44:20.370Z,75.89
2022-08-24T12:46:54.511Z,76.10
2022-08-24T12:49:31.059Z,74.07
2022-08-24T12:52:15.608Z,74.36
2022-08-24T12:55:01.382Z,74.69
2022-08-24T12:57:53.866Z,73.54
2022-08-24T13:00:28.388Z,76.49
2022-08-24T13:03:02.033Z,73.35
2022-08-24T13:05:43.559Z,70.41
2022-08-24T13:08:16.816Z,71.27
2022-08-24T13:10:55.873Z,67.67
2022-08-24T13:13:46.982Z,67.74
2022-08-24T13:16:47.665Z,67.75
2022-08-24T13:19:32.409Z,70.13
2022-08-24T13:22:41.529Z,69.17
2022-08-24T13:25:45.302Z,69.89
2022-08-24T13:28:32.461Z,70.22
2022-08-24T13:31:15.568Z,71.41
2022-08-24T13:33:48.239Z,69.69
2022-08-24T13:36:49.168Z,67.48
2022-08-24T13:39:52.954Z,69.34
2022-08-24T13:42:45.909Z,66.74
2022-08-24T13:45:26.990Z,66.93
2022-08-24T13:48:04.291Z,67.58
2022-08-24T13:50:39.050Z,68.91
2022-08-24T13:53:35.842Z,65.49
2022-08-24T13:56:33.169Z,67.18
2022-08-24T13:59:12.342Z,69.40
2022-08-24T14:02:01.203Z,71.00
2022-08-24T14:04:43.905Z,70.89
2022-08-24T14:07:19.955Z,72.90
2022-08-24T14:10:03.107Z,72.66
2022-08-24T14:12:55.495Z,73.00
2022-08-24T14:15:46.775Z,73.62
2022-08-24T14:18:24.763Z,75.55
2022-08-24T14:21:08.871Z,75.38
2022-08-24T14:23:52.612Z,75.95
2022-08-24T14:27:02.207Z,75.49
2022-08-24T14:29:38.358Z,77.05
2022-08-24T14:32:41.041Z,77.79
2022-08-24T14:35:24.114Z,78.61
2022-08-24T14:38:03.651Z,79.34
2022-08-24T14:40:37.545Z,80.49
2022-08-24T14:43:30.636Z,81.71
2022-08-24T14:46:09.180Z,82.17
2022-08-24T14:48:49.543Z,83.24
2022-08-24T14:51:39.300Z,83.70
2022-08-24T14:54:18.684Z,84.47
2022-08-24T14:57:03.921Z,85.59
2022-08-24T14:59:47.298Z,86.29
2022-08-24T15:02:50.487Z,86.92
2022-08-24T15:05:26.058Z,87.05
2022-08-24T15:07:58.955Z,87.15
2022-08-24T15:10:37.054Z,86.47
2022-08-24T15:13:11.607Z,85.70
2022-08-24T15:15:51.118Z,84.56
2022-08-24T15:18:34.832Z,83.60
2022-08-24T15:21:14.036Z,82.77
2022-08-24T15:23:53.624Z,82.31
2022-08-24T15:26:34.918Z,81.75
2022-08-24T15:29:13.390Z,81.56
2022-08-24T15:31:43.198Z,80.55
2022-08-24T15:34:12.416Z,78.89
2022-08-24T15:36:42.328Z,77.39
2022-08-24T15:39:26.217Z,78.13
2022-08-24T15:41:57.442Z,77.15
2022-08-24T15:44:29.818Z,76.63
2022-08-24T15:47:02.380Z,75.51
2022-08-24T15:49:38.160Z,74.82
2022-08-24T15:52:10.708Z,74.84
2022-08-24T15:54:44.628Z,74.25
2022-08-24T15:57:29.185Z,72.65
2022-08-24T16:00:10.648Z,71.58
2022-08-24T16:02:38.977Z,69.09
2022-08-24T16:05:23.827Z,72.19
2022-08-24T16:08:08.270Z,73.25
2022-08-24T16:10:41.362Z,73.93
2022-08-24T16:13:15.166Z,75.00
2022-08-24T16:15:49.015Z,75.10
2022-08-24T16:18:18.923Z,76.41
2022-08-24T16:20:49.121Z,76.54
2022-08-24T16:23:28.825Z,76.54
2022-08-24T16:26:24.243Z,76.47
2022-08-24T16:28:56.594Z,77.46
2022-08-24T16:31:44.263Z,75.30
2022-08-24T16:34:23.033Z,77.58
2022-08-24T16:36:51.565Z,78.86
2022-08-24T16:39:21.633Z,79.24
2022-08-24T16:41:51.480Z,80.25
2022-08-24T16:44:20.081Z,81.21
2022-08-24T16:46:54.549Z,84.80
2022-08-24T16:49:23.037Z,89.69
2022-08-24T16:51:52.031Z,93.90
2022-08-24T16:54:21.841Z,98.54
2022-08-24T16:56:50.815Z,100.00
2022-08-24T16:59:26.625Z,100.00
2022-08-24T17:01:55.947Z,100.00
2022-08-24T17:04:24.801Z,100.00
2022-08-24T17:06:53.450Z,100.00
2022-08-24T17:09:23.999Z,100.00
2022-08-24T17:11:52.819Z,100.00
2022-08-24T17:14:21.379Z,100.00
2022-08-24T17:16:50.369Z,100.00
2022-08-24T17:19:20.846Z,100.00
2022-08-24T17:21:50.010Z,100.00
2022-08-24T17:24:22.030Z,100.00
2022-08-24T17:26:52.394Z,100.00
2022-08-24T17:29:22.491Z,100.00
2022-08-24T17:31:52.406Z,100.00
2022-08-24T17:34:22.594Z,100.00
2022-08-24T17:36:54.269Z,100.00
2022-08-24T17:39:24.510Z,100.00
2022-08-24T17:41:55.432Z,100.00
2022-08-24T17:44:26.109Z,100.00
2022-08-24T17:46:57.793Z,100.00
2022-08-24T17:49:27.130Z,100.00
2022-08-24T17:51:56.997Z,100.00
2022-08-24T17:54:28.731Z,100.00
2022-08-24T17:56:58.917Z,100.00
2022-08-24T17:59:33.000Z,100.00
2022-08-24T18:02:05.298Z,100.00
2022-08-24T18:04:35.979Z,100.00
2022-08-24T18:07:11.723Z,100.00
2022-08-24T18:09:46.322Z,100.00
2022-08-24T18:12:19.202Z,100.00
2022-08-24T18:14:48.028Z,100.00
2022-08-24T18:17:22.594Z,100.00
2022-08-24T18:19:55.284Z,100.00
2022-08-24T18:22:23.736Z,100.00
2022-08-24T18:24:52.396Z,100.00
2022-08-24T18:27:29.415Z,100.00
2022-08-24T18:30:01.608Z,100.00
2022-08-24T18:32:37.757Z,100.00
2022-08-24T18:35:09.726Z,100.00
2022-08-24T18:37:39.985Z,100.00
2022-08-24T18:40:10.471Z,100.00
2022-08-24T18:42:48.351Z,100.00
2022-08-24T18:45:17.316Z,100.00
2022-08-24T18:47:53.236Z,100.00
2022-08-24T18:53:30.315Z,100.00
2022-08-24T18:56:21.535Z,100.00
2022-08-24T18:58:53.399Z,100.00
2022-08-24T19:01:58.002Z,100.00
2022-08-24T19:04:33.296Z,100.00
2022-08-24T19:10:05.852Z,100.00
2022-08-24T19:12:42.471Z,100.00
2022-08-24T19:15:37.813Z,100.00
2022-08-24T19:18:19.413Z,100.00
2022-08-24T19:20:58.563Z,100.00
2022-08-24T19:23:53.244Z,100.00
2022-08-24T19:26:28.220Z,100.00
2022-08-24T19:29:05.741Z,100.00
2022-08-24T19:31:45.147Z,100.00
2022-08-24T19:34:14.400Z,100.00
2022-08-24T19:36:47.385Z,100.00
2022-08-24T19:39:16.486Z,100.00
2022-08-24T19:42:10.862Z,100.00
2022-08-24T19:45:04.501Z,100.00
2022-08-24T19:47:38.552Z,100.00
2022-08-24T19:50:10.218Z,100.00
2022-08-24T19:52:43.955Z,100.00
2022-08-24T19:55:14.715Z,100.00
2022-08-24T19:57:49.163Z,100.00
2022-08-24T20:00:28.964Z,100.00
2022-08-24T20:03:00.920Z,100.00
2022-08-24T20:05:30.339Z,100.00
2022-08-24T20:08:00.121Z,100.00
2022-08-24T20:10:29.090Z,100.00
2022-08-24T20:12:57.661Z,100.00
2022-08-24T20:15:26.712Z,100.00
2022-08-24T20:17:57.927Z,100.00
2022-08-24T20:20:29.499Z,100.00
2022-08-24T20:23:03.044Z,100.00
2022-08-24T20:25:32.089Z,100.00
2022-08-24T20:28:27.668Z,100.00
2022-08-24T20:30:52.937Z,100.00
2022-08-24T20:33:24.422Z,100.00
2022-08-24T20:35:55.087Z,100.00
2022-08-24T20:38:24.906Z,100.00
2022-08-24T20:40:54.290Z,100.00
2022-08-24T20:43:22.958Z,100.00
2022-08-24T20:45:53.301Z,100.00
2022-08-24T20:48:28.236Z,100.00
2022-08-24T20:50:58.705Z,100.00
2022-08-24T20:53:28.078Z,100.00
2022-08-24T20:55:58.489Z,100.00
2022-08-24T20:58:27.417Z,100.00
2022-08-24T21:00:56.142Z,100.00
2022-08-24T21:03:24.841Z,100.00
2022-08-24T21:05:53.776Z,100.00
2022-08-24T21:08:25.969Z,100.00
2022-08-24T21:10:55.159Z,100.00
2022-08-24T21:13:24.578Z,100.00
2022-08-24T21:15:53.576Z,100.00
2022-08-24T21:18:22.221Z,100.00
2022-08-24T21:21:03.766Z,100.00
2022-08-24T21:23:35.517Z,100.00
2022-08-24T21:26:07.280Z,100.00
2022-08-24T21:28:37.050Z,100.00
2022-08-24T21:31:06.579Z,100.00
2022-08-24T21:33:52.810Z,100.00
2022-08-24T21:36:23.650Z,100.00
2022-08-24T21:38:54.978Z,100.00
2022-08-24T21:41:24.903Z,100.00
2022-08-24T21:43:53.512Z,100.00
2022-08-24T21:46:25.190Z,100.00
2022-08-24T21:48:53.862Z,100.00
2022-08-24T21:51:22.699Z,100.00
2022-08-24T21:53:51.603Z,100.00
2022-08-24T21:56:30.286Z,100.00
2022-08-24T21:58:59.288Z,100.00
2022-08-24T22:01:29.194Z,100.00
2022-08-24T22:03:58.918Z,100.00
2022-08-24T22:06:31.302Z,100.00
2022-08-24T22:09:01.557Z,100.00
2022-08-24T22:11:32.358Z,100.00
2022-08-24T22:14:01.293Z,100.00
2022-08-24T22:16:29.972Z,100.00
2022-08-24T22:18:58.408Z,100.00
2022-08-24T22:21:30.532Z,100.00
2022-08-24T22:23:59.967Z,100.00
2022-08-24T22:26:30.868Z,100.00
2022-08-24T22:29:05.482Z,100.00
2022-08-24T22:31:37.402Z,100.00
2022-08-24T22:34:09.858Z,100.00
2022-08-24T22:36:38.560Z,100.00
2022-08-24T22:39:09.566Z,100.00
2022-08-24T22:41:39.372Z,100.00
2022-08-24T22:44:21.938Z,100.00
2022-08-24T22:46:52.922Z,100.00
2022-08-24T22:49:22.936Z,100.00
2022-08-24T22:51:52.280Z,100.00
2022-08-24T22:54:23.096Z,100.00
2022-08-24T22:56:53.599Z,100.00
2022-08-24T22:59:25.884Z,100.00
2022-08-24T23:01:56.311Z,100.00
2022-08-24T23:04:27.488Z,100.00
2022-08-24T23:06:56.155Z,100.00
2022-08-24T23:09:24.669Z,100.00
2022-08-24T23:11:54.031Z,100.00
2022-08-24T23:14:25.903Z,100.00
2022-08-24T23:16:55.852Z,100.00
2022-08-24T23:19:43.643Z,100.00
2022-08-24T23:22:14.976Z,100.00
2022-08-24T23:24:45.306Z,100.00
2022-08-24T23:27:16.705Z,100.00
2022-08-24T23:29:47.718Z,100.00
2022-08-24T23:32:18.212Z,100.00
2022-08-24T23:34:48.084Z,100.00
2022-08-24T23:37:17.082Z,100.00
2022-08-24T23:39:46.675Z,100.00
2022-08-24T23:42:15.311Z,100.00
2022-08-24T23:44:43.860Z,100.00
2022-08-24T23:47:14.252Z,100.00
2022-08-24T23:49:42.724Z,100.00
2022-08-24T23:52:26.727Z,100.00
2022-08-24T23:54:59.995Z,100.00
2022-08-24T23:57:47.071Z,100.00
